createdAt,value
2018-12-31T00:00:40.370Z,102651.52
2018-12-31T00:01:48.457Z,102652.00
2018-12-31T00:02:52.607Z,102650.67
2018-12-31T00:03:56.829Z,102652.40
2018-12-31T00:05:01.033Z,102645.80
2018-12-31T00:06:05.312Z,102648.38
2018-12-31T00:07:09.453Z,102653.73
2018-12-31T00:08:13.731Z,102656.77
2018-12-31T00:09:17.930Z,102658.47
2018-12-31T00:10:22.193Z,102655.80
2018-12-31T00:11:26.359Z,102660.17
2018-12-31T00:12:30.440Z,102662.36
2018-12-31T00:13:34.536Z,102662.00
2018-12-31T00:14:38.719Z,102659.20
2018-12-31T00:15:42.933Z,102661.51
2018-12-31T00:16:47.172Z,102666.02
2018-12-31T00:17:51.253Z,102665.16
2018-12-31T00:18:55.444Z,102667.35
2018-12-31T00:19:59.590Z,102671.23
2018-12-31T00:21:03.865Z,102667.72
2018-12-31T00:22:08.029Z,102664.19
2018-12-31T00:23:12.251Z,102662.71
2018-12-31T00:24:16.297Z,102667.84
2018-12-31T00:25:20.449Z,102672.22
2018-12-31T00:26:24.758Z,102670.03
2018-12-31T00:27:28.975Z,102669.54
2018-12-31T00:28:33.104Z,102673.55
2018-12-31T00:29:37.263Z,102672.22
2018-12-31T00:30:41.322Z,102668.45
2018-12-31T00:31:45.467Z,102670.03
2018-12-31T00:32:49.578Z,102672.22
2018-12-31T00:33:53.655Z,102678.05
2018-12-31T00:34:57.739Z,102673.91
2018-12-31T00:36:01.899Z,102674.41
2018-12-31T00:37:05.984Z,102672.94
2018-12-31T00:38:10.034Z,102675.25
2018-12-31T00:39:14.222Z,102676.10
2018-12-31T00:40:18.476Z,102673.42
2018-12-31T00:41:22.700Z,102670.63
2018-12-31T00:42:26.911Z,102675.97
2018-12-31T00:43:31.040Z,102677.67
2018-12-31T00:44:35.148Z,102667.59
2018-12-31T00:45:39.294Z,102674.77
2018-12-31T00:46:43.451Z,102676.59
2018-12-31T00:47:47.741Z,102670.03
2018-12-31T00:48:51.865Z,102674.41
2018-12-31T00:49:56.143Z,102669.17
2018-12-31T00:51:00.299Z,102673.19
2018-12-31T00:52:04.461Z,102662.98
2018-12-31T00:53:08.888Z,102666.14
2018-12-31T00:54:12.978Z,102668.81
2018-12-31T00:55:23.676Z,102669.40
2018-12-31T00:56:27.902Z,102670.16
2018-12-31T00:57:31.985Z,102673.31
2018-12-31T00:58:36.094Z,102669.40
2018-12-31T00:59:40.198Z,102672.47
2018-12-31T01:00:44.434Z,102666.23
2018-12-31T01:01:48.611Z,102665.78
2018-12-31T01:02:53.001Z,102669.40
2018-12-31T01:03:57.283Z,102665.78
2018-12-31T01:05:01.608Z,102670.16
2018-12-31T01:06:05.824Z,102667.12
2018-12-31T01:07:09.945Z,102669.80
2018-12-31T01:08:14.105Z,102667.84
2018-12-31T01:09:18.386Z,102667.48
2018-12-31T01:10:22.686Z,102668.45
2018-12-31T01:11:26.986Z,102668.81
2018-12-31T01:12:31.115Z,102665.78
2018-12-31T01:13:35.305Z,102664.89
2018-12-31T01:14:39.488Z,102672.47
2018-12-31T01:15:43.619Z,102676.48
2018-12-31T01:16:47.799Z,102672.08
2018-12-31T01:17:51.836Z,102680.50
2018-12-31T01:18:55.860Z,102680.50
2018-12-31T01:19:59.999Z,102680.50
2018-12-31T01:21:04.142Z,102678.28
2018-12-31T01:22:08.289Z,102676.48
2018-12-31T01:23:12.570Z,102679.61
2018-12-31T01:24:16.744Z,102682.29
2018-12-31T01:25:21.104Z,102681.93
2018-12-31T01:26:28.260Z,102682.29
2018-12-31T01:27:32.368Z,102681.84
2018-12-31T01:28:36.587Z,102681.44
2018-12-31T01:29:40.674Z,102676.94
2018-12-31T01:30:45.080Z,102677.82
2018-12-31T01:31:49.179Z,102680.01
2018-12-31T01:32:53.386Z,102678.77
2018-12-31T01:33:57.522Z,102681.93
2018-12-31T01:35:01.863Z,102678.41
2018-12-31T01:36:06.004Z,102675.84
2018-12-31T01:37:09.987Z,102673.56
2018-12-31T01:38:14.021Z,102681.59
2018-12-31T01:39:18.243Z,102685.70
2018-12-31T01:40:22.316Z,102684.36
2018-12-31T01:41:26.418Z,102685.70
2018-12-31T01:42:30.426Z,102676.22
2018-12-31T01:43:34.488Z,102687.52
2018-12-31T01:44:38.560Z,102679.38
2018-12-31T01:45:42.556Z,102691.53
2018-12-31T01:46:46.684Z,102688.49
2018-12-31T01:47:50.759Z,102686.54
2018-12-31T01:48:54.862Z,102690.55
2018-12-31T01:49:58.908Z,102692.78
2018-12-31T01:51:07.521Z,102692.29
2018-12-31T01:52:07.306Z,102695.45
2018-12-31T01:53:11.399Z,102692.88
2018-12-31T01:54:15.427Z,102688.37
2018-12-31T01:55:19.549Z,102680.72
2018-12-31T01:56:23.626Z,102685.20
2018-12-31T01:57:27.771Z,102688.37
2018-12-31T01:58:31.936Z,102686.18
2018-12-31T01:59:36.000Z,102687.16
2018-12-31T02:00:40.176Z,102684.48
2018-12-31T02:01:44.259Z,102693.84
2018-12-31T02:02:48.419Z,102688.49
2018-12-31T02:03:52.692Z,102687.28
2018-12-31T02:04:56.722Z,102684.48
2018-12-31T02:06:00.899Z,102690.80
2018-12-31T02:07:05.136Z,102687.64
2018-12-31T02:08:09.309Z,102690.80
2018-12-31T02:09:13.380Z,102690.31
2018-12-31T02:10:17.397Z,102691.17
2018-12-31T02:11:21.516Z,102688.86
2018-12-31T02:12:25.604Z,102691.89
2018-12-31T02:13:29.746Z,102692.29
2018-12-31T02:14:33.857Z,102689.61
2018-12-31T02:15:37.966Z,102698.98
2018-12-31T02:16:42.136Z,102695.81
2018-12-31T02:17:46.267Z,102694.71
2018-12-31T02:18:50.415Z,102701.40
2018-12-31T02:19:54.524Z,102697.03
2018-12-31T02:20:58.714Z,102697.26
2018-12-31T02:22:02.736Z,102692.77
2018-12-31T02:23:06.912Z,102694.09
2018-12-31T02:24:11.092Z,102692.77
2018-12-31T02:25:15.174Z,102689.11
2018-12-31T02:26:19.268Z,102687.19
2018-12-31T02:27:23.350Z,102680.50
2018-12-31T02:28:27.511Z,102684.02
2018-12-31T02:29:31.610Z,102683.17
2018-12-31T02:30:35.762Z,102682.29
2018-12-31T02:31:39.836Z,102682.29
2018-12-31T02:32:43.975Z,102684.12
2018-12-31T02:33:48.013Z,102684.02
2018-12-31T02:34:52.335Z,102684.12
2018-12-31T02:35:56.410Z,102681.34
2018-12-31T02:37:00.521Z,102686.58
2018-12-31T02:38:04.661Z,102690.10
2018-12-31T02:39:09.028Z,102685.95
2018-12-31T02:40:13.157Z,102687.30
2018-12-31T02:41:17.226Z,102689.00
2018-12-31T02:42:21.388Z,102694.34
2018-12-31T02:43:25.534Z,102693.02
2018-12-31T02:44:29.686Z,102692.52
2018-12-31T02:45:33.837Z,102695.56
2018-12-31T02:46:37.924Z,102696.53
2018-12-31T02:47:42.073Z,102693.38
2018-12-31T02:48:46.292Z,102687.17
2018-12-31T02:49:50.382Z,102686.31
2018-12-31T02:50:54.513Z,102684.00
2018-12-31T02:51:58.580Z,102688.87
2018-12-31T02:53:02.688Z,102683.52
2018-12-31T02:54:06.823Z,102686.19
2018-12-31T02:55:10.967Z,102688.02
2018-12-31T02:56:15.274Z,102684.36
2018-12-31T02:57:19.340Z,102686.19
2018-12-31T02:58:23.493Z,102692.88
2018-12-31T02:59:27.598Z,102686.19
2018-12-31T03:00:32.091Z,102696.05
2018-12-31T03:01:36.189Z,102689.23
2018-12-31T03:02:40.660Z,102687.53
2018-12-31T03:03:44.745Z,102691.19
2018-12-31T03:04:48.815Z,102688.51
2018-12-31T03:05:52.931Z,102687.66
2018-12-31T03:06:56.987Z,102689.00
2018-12-31T03:08:01.193Z,102693.02
2018-12-31T03:09:07.885Z,102688.63
2018-12-31T03:10:11.979Z,102680.61
2018-12-31T03:11:16.025Z,102689.00
2018-12-31T03:12:20.074Z,102685.34
2018-12-31T03:13:24.258Z,102681.33
2018-12-31T03:14:28.362Z,102682.66
2018-12-31T03:15:32.487Z,102676.83
2018-12-31T03:16:36.619Z,102675.84
2018-12-31T03:17:40.722Z,102668.20
2018-12-31T03:18:44.726Z,102671.38
2018-12-31T03:19:48.833Z,102671.38
2018-12-31T03:20:52.985Z,102667.72
2018-12-31T03:21:57.061Z,102673.08
2018-12-31T03:23:01.278Z,102670.89
2018-12-31T03:24:05.391Z,102665.05
2018-12-31T03:25:09.478Z,102670.77
2018-12-31T03:26:13.507Z,102663.22
2018-12-31T03:27:17.741Z,102666.75
2018-12-31T03:28:21.873Z,102668.58
2018-12-31T03:29:26.058Z,102668.09
2018-12-31T03:30:30.159Z,102670.77
2018-12-31T03:31:34.351Z,102670.27
2018-12-31T03:32:38.344Z,102666.12
2018-12-31T03:33:42.408Z,102665.89
2018-12-31T03:34:46.471Z,102665.27
2018-12-31T03:35:50.484Z,102665.27
2018-12-31T03:36:54.559Z,102663.94
2018-12-31T03:37:58.656Z,102666.97
2018-12-31T03:39:02.790Z,102668.30
2018-12-31T03:40:06.927Z,102667.82
2018-12-31T03:41:10.932Z,102667.82
2018-12-31T03:42:15.041Z,102668.92
2018-12-31T03:43:19.172Z,102671.60
2018-12-31T03:44:23.250Z,102672.09
2018-12-31T03:45:27.343Z,102673.55
2018-12-31T03:46:31.431Z,102670.16
2018-12-31T03:47:35.628Z,102671.60
2018-12-31T03:48:39.733Z,102667.59
2018-12-31T03:49:43.935Z,102667.59
2018-12-31T03:50:48.066Z,102668.92
2018-12-31T03:51:52.200Z,102667.22
2018-12-31T03:52:56.287Z,102665.76
2018-12-31T03:54:00.691Z,102672.22
2018-12-31T03:55:04.920Z,102672.22
2018-12-31T03:56:08.979Z,102671.49
2018-12-31T03:57:13.054Z,102664.44
2018-12-31T03:58:17.186Z,102664.19
2018-12-31T03:59:21.378Z,102666.38
2018-12-31T04:00:25.620Z,102665.38
2018-12-31T04:01:36.105Z,102669.41
2018-12-31T04:02:40.162Z,102667.22
2018-12-31T04:03:44.224Z,102666.73
2018-12-31T04:04:48.263Z,102660.04
2018-12-31T04:05:52.300Z,102660.41
2018-12-31T04:06:56.556Z,102658.58
2018-12-31T04:08:00.631Z,102653.12
2018-12-31T04:09:05.312Z,102650.19
2018-12-31T04:10:09.415Z,102652.02
2018-12-31T04:11:13.510Z,102648.72
2018-12-31T04:12:17.647Z,102657.02
2018-12-31T04:13:28.001Z,102653.85
2018-12-31T04:14:32.173Z,102648.25
2018-12-31T04:15:36.468Z,102648.61
2018-12-31T04:16:40.531Z,102638.38
2018-12-31T04:17:44.567Z,102645.07
2018-12-31T04:18:48.644Z,102637.92
2018-12-31T04:19:52.762Z,102641.56
2018-12-31T04:20:56.731Z,102640.59
2018-12-31T04:22:00.806Z,102641.06
2018-12-31T04:23:04.933Z,102635.85
2018-12-31T04:24:08.981Z,102644.23
2018-12-31T04:25:13.104Z,102642.91
2018-12-31T04:26:17.154Z,102637.42
2018-12-31T04:27:21.149Z,102643.13
2018-12-31T04:28:25.288Z,102642.03
2018-12-31T04:29:29.318Z,102639.72
2018-12-31T04:30:33.444Z,102642.54
2018-12-31T04:31:37.481Z,102645.92
2018-12-31T04:32:41.637Z,102643.72
2018-12-31T04:33:45.673Z,102648.11
2018-12-31T04:34:49.681Z,102652.75
2018-12-31T04:35:53.705Z,102648.61
2018-12-31T04:36:57.752Z,102651.16
2018-12-31T04:38:02.149Z,102651.15
2018-12-31T04:39:07.693Z,102648.25
2018-12-31T04:40:11.786Z,102654.81
2018-12-31T04:41:15.899Z,102645.08
2018-12-31T04:42:19.986Z,102650.56
2018-12-31T04:43:24.138Z,102649.47
2018-12-31T04:44:28.162Z,102639.61
2018-12-31T04:45:32.300Z,102637.91
2018-12-31T04:46:36.430Z,102634.13
2018-12-31T04:47:40.795Z,102636.68
2018-12-31T04:48:44.617Z,102634.13
2018-12-31T04:49:48.733Z,102627.68
2018-12-31T04:50:52.870Z,102625.98
2018-12-31T04:51:57.020Z,102623.56
2018-12-31T04:53:01.019Z,102623.44
2018-12-31T04:54:05.133Z,102626.34
2018-12-31T04:55:09.198Z,102625.48
2018-12-31T04:56:13.295Z,102628.66
2018-12-31T04:57:17.318Z,102631.59
2018-12-31T04:58:23.215Z,102625.26
2018-12-31T04:59:25.548Z,102627.08
2018-12-31T05:00:29.604Z,102634.88
2018-12-31T05:01:33.694Z,102635.11
2018-12-31T05:02:37.880Z,102636.09
2018-12-31T05:03:41.962Z,102634.01
2018-12-31T05:04:45.995Z,102632.42
2018-12-31T05:05:50.002Z,102637.91
2018-12-31T05:06:54.120Z,102630.86
2018-12-31T05:07:58.198Z,102639.61
2018-12-31T05:09:02.226Z,102643.39
2018-12-31T05:10:06.626Z,102644.46
2018-12-31T05:11:10.642Z,102647.01
2018-12-31T05:12:14.779Z,102642.51
2018-12-31T05:13:18.903Z,102642.78
2018-12-31T05:14:22.916Z,102638.39
2018-12-31T05:15:27.035Z,102643.61
2018-12-31T05:16:31.031Z,102635.45
2018-12-31T05:17:35.160Z,102636.31
2018-12-31T05:18:39.268Z,102639.58
2018-12-31T05:19:43.290Z,102635.08
2018-12-31T05:20:47.321Z,102636.08
2018-12-31T05:21:51.398Z,102646.41
2018-12-31T05:22:55.488Z,102636.56
2018-12-31T05:23:59.603Z,102642.61
2018-12-31T05:25:03.650Z,102641.17
2018-12-31T05:26:07.754Z,102637.64
2018-12-31T05:27:11.757Z,102640.34
2018-12-31T05:28:15.768Z,102640.34
2018-12-31T05:29:19.860Z,102638.25
2018-12-31T05:30:24.010Z,102639.22
2018-12-31T05:31:28.366Z,102641.53
2018-12-31T05:32:32.406Z,102640.56
2018-12-31T05:33:36.437Z,102641.91
2018-12-31T05:34:40.501Z,102639.83
2018-12-31T05:35:44.548Z,102640.68
2018-12-31T05:36:48.622Z,102639.58
2018-12-31T05:37:52.679Z,102632.31
2018-12-31T05:38:56.818Z,102630.98
2018-12-31T05:40:01.014Z,102628.05
2018-12-31T05:41:05.106Z,102623.31
2018-12-31T05:42:09.155Z,102621.70
2018-12-31T05:43:13.202Z,102620.75
2018-12-31T05:44:17.236Z,102614.53
2018-12-31T05:45:21.371Z,102612.62
2018-12-31T05:46:25.482Z,102612.23
2018-12-31T05:47:29.574Z,102612.22
2018-12-31T05:48:33.633Z,102601.89
2018-12-31T05:49:37.725Z,102605.31
2018-12-31T05:50:41.954Z,102602.39
2018-12-31T05:51:45.996Z,102604.45
2018-12-31T05:52:50.118Z,102612.11
2018-12-31T05:53:54.116Z,102606.51
2018-12-31T05:54:58.164Z,102606.51
2018-12-31T05:56:02.301Z,102610.91
2018-12-31T05:57:06.354Z,102603.61
2018-12-31T05:58:10.397Z,102603.00
2018-12-31T05:59:14.507Z,102601.66
2018-12-31T06:00:18.573Z,102601.05
2018-12-31T06:01:22.725Z,102598.38
2018-12-31T06:02:26.826Z,102597.52
2018-12-31T06:03:30.853Z,102593.52
2018-12-31T06:04:35.038Z,102590.86
2018-12-31T06:05:39.163Z,102592.20
2018-12-31T06:06:43.289Z,102588.42
2018-12-31T06:07:47.362Z,102596.67
2018-12-31T06:08:51.450Z,102584.89
2018-12-31T06:09:55.618Z,102589.02
2018-12-31T06:10:59.786Z,102587.09
2018-12-31T06:12:03.997Z,102581.85
2018-12-31T06:13:08.099Z,102579.89
2018-12-31T06:14:12.177Z,102579.89
2018-12-31T06:15:16.241Z,102570.41
2018-12-31T06:16:20.288Z,102572.98
2018-12-31T06:17:30.528Z,102565.55
2018-12-31T06:18:34.630Z,102568.61
2018-12-31T06:19:38.657Z,102570.41
2018-12-31T06:20:42.680Z,102569.55
2018-12-31T06:21:46.732Z,102569.55
2018-12-31T06:22:50.927Z,102570.31
2018-12-31T06:23:54.938Z,102568.97
2018-12-31T06:24:59.123Z,102575.66
2018-12-31T06:26:03.176Z,102574.81
2018-12-31T06:27:07.296Z,102574.32
2018-12-31T06:28:11.523Z,102575.17
2018-12-31T06:29:15.600Z,102572.49
2018-12-31T06:30:19.673Z,102574.69
2018-12-31T06:31:23.736Z,102573.70
2018-12-31T06:32:27.821Z,102576.38
2018-12-31T06:33:32.003Z,102580.39
2018-12-31T06:34:36.049Z,102580.39
2018-12-31T06:35:40.079Z,102583.42
2018-12-31T06:36:44.129Z,102596.09
2018-12-31T06:37:48.229Z,102589.88
2018-12-31T06:38:52.394Z,102593.05
2018-12-31T06:39:56.495Z,102593.53
2018-12-31T06:41:00.563Z,102590.72
2018-12-31T06:42:04.635Z,102591.58
2018-12-31T06:43:08.691Z,102590.95
2018-12-31T06:44:12.835Z,102596.92
2018-12-31T06:45:16.848Z,102595.84
2018-12-31T06:46:20.952Z,102597.03
2018-12-31T06:47:25.051Z,102599.58
2018-12-31T06:48:29.137Z,102592.31
2018-12-31T06:49:33.299Z,102599.00
2018-12-31T06:50:37.320Z,102597.17
2018-12-31T06:51:41.410Z,102594.72
2018-12-31T06:52:45.505Z,102593.02
2018-12-31T06:53:49.577Z,102594.62
2018-12-31T06:54:53.761Z,102594.85
2018-12-31T06:55:57.779Z,102590.97
2018-12-31T06:57:01.833Z,102591.94
2018-12-31T06:58:05.843Z,102594.36
2018-12-31T06:59:09.906Z,102593.02
2018-12-31T07:00:14.033Z,102594.62
2018-12-31T07:01:18.048Z,102594.86
2018-12-31T07:02:22.130Z,102590.36
2018-12-31T07:03:26.256Z,102592.19
2018-12-31T07:04:30.269Z,102589.38
2018-12-31T07:05:34.470Z,102586.58
2018-12-31T07:06:38.534Z,102578.69
2018-12-31T07:07:42.616Z,102579.66
2018-12-31T07:08:46.767Z,102578.93
2018-12-31T07:09:50.827Z,102576.48
2018-12-31T07:10:55.026Z,102570.42
2018-12-31T07:11:59.165Z,102572.48
2018-12-31T07:13:03.380Z,102567.03
2018-12-31T07:14:07.546Z,102563.02
2018-12-31T07:15:11.635Z,102565.30
2018-12-31T07:16:15.818Z,102553.52
2018-12-31T07:17:19.883Z,102550.84
2018-12-31T07:18:23.924Z,102536.86
2018-12-31T07:19:28.065Z,102534.18
2018-12-31T07:20:32.210Z,102532.62
2018-12-31T07:21:36.315Z,102525.57
2018-12-31T07:22:40.451Z,102523.84
2018-12-31T07:23:44.550Z,102527.63
2018-12-31T07:24:48.592Z,102523.62
2018-12-31T07:25:52.654Z,102532.00
2018-12-31T07:26:56.826Z,102528.97
2018-12-31T07:28:00.916Z,102528.97
2018-12-31T07:29:05.148Z,102527.27
2018-12-31T07:30:09.427Z,102533.46
2018-12-31T07:31:13.529Z,102523.61
2018-12-31T07:32:17.687Z,102532.24
2018-12-31T07:33:21.736Z,102528.23
2018-12-31T07:34:25.723Z,102530.55
2018-12-31T07:35:29.877Z,102525.56
2018-12-31T07:36:34.034Z,102523.02
2018-12-31T07:37:38.203Z,102523.61
2018-12-31T07:38:42.343Z,102532.13
2018-12-31T07:39:46.447Z,102525.67
2018-12-31T07:40:50.550Z,102522.41
2018-12-31T07:41:54.676Z,102520.81
2018-12-31T07:42:58.734Z,102518.27
2018-12-31T07:44:02.799Z,102524.59
2018-12-31T07:45:06.947Z,102518.39
2018-12-31T07:46:11.051Z,102524.23
2018-12-31T07:47:15.209Z,102522.89
2018-12-31T07:48:19.266Z,102523.62
2018-12-31T07:49:23.403Z,102530.30
2018-12-31T07:50:28.260Z,102533.59
2018-12-31T07:51:31.650Z,102532.27
2018-12-31T07:52:35.743Z,102530.92
2018-12-31T07:53:39.811Z,102534.55
2018-12-31T07:54:43.959Z,102532.95
2018-12-31T07:55:48.221Z,102536.38
2018-12-31T07:56:52.256Z,102534.78
2018-12-31T07:57:56.368Z,102525.31
2018-12-31T07:59:00.457Z,102530.41
2018-12-31T08:00:05.489Z,102527.98
2018-12-31T08:01:09.550Z,102534.06
2018-12-31T08:02:13.692Z,102528.09
2018-12-31T08:03:17.804Z,102530.89
2018-12-31T08:04:22.010Z,102530.54
2018-12-31T08:05:26.198Z,102524.56
2018-12-31T08:06:30.308Z,102525.29
2018-12-31T08:07:34.434Z,102520.56
2018-12-31T08:08:38.609Z,102521.27
2018-12-31T08:09:42.665Z,102521.53
2018-12-31T08:10:46.804Z,102519.94
2018-12-31T08:11:50.949Z,102527.73
2018-12-31T08:12:55.041Z,102521.64
2018-12-31T08:13:59.200Z,102524.67
2018-12-31T08:15:03.351Z,102523.08
2018-12-31T08:16:07.482Z,102522.22
2018-12-31T08:17:11.513Z,102529.05
2018-12-31T08:18:15.675Z,102531.84
2018-12-31T08:19:19.854Z,102530.16
2018-12-31T08:20:24.013Z,102519.32
2018-12-31T08:21:28.110Z,102518.60
2018-12-31T08:22:32.295Z,102519.19
2018-12-31T08:23:36.419Z,102512.27
2018-12-31T08:24:40.706Z,102515.66
2018-12-31T08:25:51.845Z,102515.66
2018-12-31T08:26:56.262Z,102508.71
2018-12-31T08:28:00.652Z,102496.93
2018-12-31T08:29:05.014Z,102500.45
2018-12-31T08:30:09.839Z,102494.74
2018-12-31T08:31:14.416Z,102495.81
2018-12-31T08:32:18.816Z,102490.47
2018-12-31T08:33:23.414Z,102495.95
2018-12-31T08:34:27.822Z,102482.44
2018-12-31T08:35:32.685Z,102481.81
2018-12-31T08:36:37.207Z,102480.34
2018-12-31T08:37:41.509Z,102483.27
2018-12-31T08:38:45.976Z,102482.30
2018-12-31T08:39:50.376Z,102480.59
2018-12-31T08:40:54.980Z,102482.80
2018-12-31T08:41:59.344Z,102481.19
2018-12-31T08:43:03.881Z,102482.88
2018-12-31T08:44:08.336Z,102479.00
2018-12-31T08:45:12.727Z,102478.06
2018-12-31T08:46:17.167Z,102475.97
2018-12-31T08:47:21.738Z,102475.84
2018-12-31T08:48:26.038Z,102469.50
2018-12-31T08:49:30.107Z,102472.92
2018-12-31T08:50:34.224Z,102460.76
2018-12-31T08:51:38.432Z,102459.55
2018-12-31T08:52:42.549Z,102452.23
2018-12-31T08:53:46.681Z,102449.41
2018-12-31T08:54:50.744Z,102448.84
2018-12-31T08:55:54.859Z,102442.86
2018-12-31T08:56:59.239Z,102450.41
2018-12-31T08:58:03.355Z,102449.34
2018-12-31T08:59:07.441Z,102447.37
2018-12-31T09:00:11.732Z,102439.95
2018-12-31T09:01:16.183Z,102447.23
2018-12-31T09:02:20.822Z,102446.38
2018-12-31T09:03:25.428Z,102444.90
2018-12-31T09:04:29.887Z,102436.38
2018-12-31T09:05:34.342Z,102445.83
2018-12-31T09:06:38.857Z,102440.95
2018-12-31T09:07:43.287Z,102435.24
2018-12-31T09:08:47.840Z,102427.20
2018-12-31T09:09:52.375Z,102423.13
2018-12-31T09:10:56.838Z,102419.27
2018-12-31T09:12:01.121Z,102410.14
2018-12-31T09:13:05.797Z,102413.75
2018-12-31T09:14:10.338Z,102408.16
2018-12-31T09:15:14.917Z,102414.95
2018-12-31T09:16:19.461Z,102402.55
2018-12-31T09:17:24.022Z,102405.20
2018-12-31T09:18:28.353Z,102401.27
2018-12-31T09:19:32.818Z,102406.03
2018-12-31T09:20:37.209Z,102397.74
2018-12-31T09:21:41.582Z,102400.04
2018-12-31T09:22:46.089Z,102400.75
2018-12-31T09:23:50.440Z,102389.35
2018-12-31T09:24:54.685Z,102388.78
2018-12-31T09:25:58.948Z,102383.40
2018-12-31T09:27:03.322Z,102387.49
2018-12-31T09:28:07.675Z,102383.34
2018-12-31T09:29:12.209Z,102378.04
2018-12-31T09:30:16.529Z,102380.03
2018-12-31T09:31:21.530Z,102388.06
2018-12-31T09:32:25.856Z,102386.73
2018-12-31T09:33:30.262Z,102381.38
2018-12-31T09:34:34.577Z,102380.98
2018-12-31T09:35:39.153Z,102377.81
2018-12-31T09:36:43.665Z,102369.78
2018-12-31T09:37:48.219Z,102374.32
2018-12-31T09:38:52.341Z,102351.91
2018-12-31T09:39:56.946Z,102360.75
2018-12-31T09:41:01.461Z,102354.34
2018-12-31T09:42:06.071Z,102353.08
2018-12-31T09:43:10.519Z,102349.97
2018-12-31T09:44:14.672Z,102351.06
2018-12-31T09:45:19.080Z,102352.16
2018-12-31T09:46:23.638Z,102353.98
2018-12-31T09:47:28.073Z,102343.27
2018-12-31T09:48:32.627Z,102345.88
2018-12-31T09:49:36.943Z,102338.69
2018-12-31T09:50:41.525Z,102324.59
2018-12-31T09:51:45.709Z,102313.62
2018-12-31T09:52:49.901Z,102317.02
2018-12-31T09:53:54.185Z,102320.61
2018-12-31T09:54:58.430Z,102325.12
2018-12-31T09:56:03.085Z,102312.85
2018-12-31T09:57:07.682Z,102309.50
2018-12-31T09:58:11.911Z,102306.37
2018-12-31T09:59:16.136Z,102298.05
2018-12-31T10:00:20.445Z,102297.80
2018-12-31T10:01:25.024Z,102301.01
2018-12-31T10:02:29.207Z,102300.27
2018-12-31T10:03:33.644Z,102297.80
2018-12-31T10:04:38.023Z,102294.87
2018-12-31T10:05:42.465Z,102282.08
2018-12-31T10:06:46.776Z,102292.62
2018-12-31T10:07:51.066Z,102296.00
2018-12-31T10:08:55.541Z,102295.11
2018-12-31T10:09:59.877Z,102290.20
2018-12-31T10:11:04.351Z,102276.64
2018-12-31T10:12:08.872Z,102278.19
2018-12-31T10:13:13.280Z,102275.91
2018-12-31T10:14:17.521Z,102260.61
2018-12-31T10:15:22.186Z,102254.83
2018-12-31T10:16:26.708Z,102250.20
2018-12-31T10:17:31.169Z,102247.88
2018-12-31T10:18:35.728Z,102244.66
2018-12-31T10:19:40.099Z,102252.10
2018-12-31T10:20:44.610Z,102248.08
2018-12-31T10:21:49.242Z,102246.04
2018-12-31T10:22:53.972Z,102249.61
2018-12-31T10:23:58.451Z,102243.16
2018-12-31T10:25:02.857Z,102244.60
2018-12-31T10:26:07.269Z,102240.33
2018-12-31T10:27:11.753Z,102239.03
2018-12-31T10:28:16.232Z,102226.48
2018-12-31T10:29:20.885Z,102217.75
2018-12-31T10:30:25.361Z,102227.42
2018-12-31T10:31:29.854Z,102220.48
2018-12-31T10:32:34.351Z,102212.53
2018-12-31T10:33:38.821Z,102211.69
2018-12-31T10:34:43.236Z,102204.40
2018-12-31T10:35:47.579Z,102207.71
2018-12-31T10:36:52.145Z,102199.63
2018-12-31T10:37:56.580Z,102199.96
2018-12-31T10:39:01.015Z,102186.42
2018-12-31T10:40:06.065Z,102177.26
2018-12-31T10:41:10.491Z,102172.74
2018-12-31T10:42:14.805Z,102181.48
2018-12-31T10:43:18.977Z,102173.05
2018-12-31T10:44:23.077Z,102169.67
2018-12-31T10:45:27.292Z,102159.50
2018-12-31T10:46:31.623Z,102158.86
2018-12-31T10:47:35.786Z,102149.48
2018-12-31T10:48:39.893Z,102149.13
2018-12-31T10:49:44.190Z,102145.55
2018-12-31T10:50:48.340Z,102146.95
2018-12-31T10:51:52.488Z,102144.47
2018-12-31T10:52:56.594Z,102140.89
2018-12-31T10:54:00.717Z,102132.21
2018-12-31T10:55:04.971Z,102133.16
2018-12-31T10:56:09.224Z,102135.39
2018-12-31T10:57:13.391Z,102138.02
2018-12-31T10:58:17.537Z,102135.53
2018-12-31T10:59:21.734Z,102130.58
2018-12-31T11:00:26.157Z,102132.01
2018-12-31T11:01:30.471Z,102135.48
2018-12-31T11:02:34.626Z,102126.91
2018-12-31T11:03:38.812Z,102123.97
2018-12-31T11:04:43.367Z,102123.62
2018-12-31T11:05:47.930Z,102122.63
2018-12-31T11:06:52.388Z,102117.33
2018-12-31T11:07:56.820Z,102112.81
2018-12-31T11:09:00.961Z,102108.16
2018-12-31T11:10:05.788Z,102110.94
2018-12-31T11:11:09.956Z,102106.95
2018-12-31T11:12:14.471Z,102115.73
2018-12-31T11:13:18.997Z,102108.11
2018-12-31T11:14:23.222Z,102106.36
2018-12-31T11:15:27.721Z,102106.30
2018-12-31T11:16:32.161Z,102093.65
2018-12-31T11:17:36.608Z,102090.42
2018-12-31T11:18:40.791Z,102088.38
2018-12-31T11:19:44.969Z,102081.73
2018-12-31T11:20:50.053Z,102079.05
2018-12-31T11:21:54.512Z,102073.99
2018-12-31T11:22:59.023Z,102066.22
2018-12-31T11:24:03.241Z,102067.01
2018-12-31T11:25:07.684Z,102064.88
2018-12-31T11:26:12.048Z,102064.18
2018-12-31T11:27:16.671Z,102061.09
2018-12-31T11:28:20.957Z,102058.95
2018-12-31T11:29:25.611Z,102057.06
2018-12-31T11:30:31.199Z,102049.59
2018-12-31T11:31:37.486Z,102051.56
2018-12-31T11:32:41.973Z,102042.09
2018-12-31T11:33:46.158Z,102045.27
2018-12-31T11:34:50.287Z,102038.67
2018-12-31T11:35:54.439Z,102036.75
2018-12-31T11:36:58.767Z,102032.59
2018-12-31T11:38:02.999Z,102027.88
2018-12-31T11:39:08.229Z,102026.53
2018-12-31T11:40:12.611Z,102018.23
2018-12-31T11:41:16.836Z,102021.60
2018-12-31T11:42:21.205Z,102016.11
2018-12-31T11:43:25.761Z,102015.77
2018-12-31T11:44:29.989Z,102017.86
2018-12-31T11:45:34.106Z,102012.30
2018-12-31T11:46:38.285Z,102005.61
2018-12-31T11:47:42.408Z,101998.50
2018-12-31T11:48:46.563Z,101996.52
2018-12-31T11:49:50.904Z,101991.84
2018-12-31T11:50:55.050Z,101983.89
2018-12-31T11:51:59.145Z,101970.22
2018-12-31T11:53:03.629Z,101967.31
2018-12-31T11:54:07.824Z,101973.94
2018-12-31T11:55:12.004Z,101970.69
2018-12-31T11:56:16.180Z,101954.16
2018-12-31T11:57:20.324Z,101953.39
2018-12-31T11:58:24.447Z,101949.07
2018-12-31T11:59:28.916Z,101938.92
2018-12-31T12:00:33.512Z,101937.09
2018-12-31T12:01:38.001Z,101932.42
2018-12-31T12:02:42.381Z,101920.55
2018-12-31T12:03:46.830Z,101918.06
2018-12-31T12:04:51.488Z,101916.03
2018-12-31T12:05:56.082Z,101916.68
2018-12-31T12:07:00.401Z,101910.63
2018-12-31T12:08:04.930Z,101906.61
2018-12-31T12:09:09.376Z,101905.30
2018-12-31T12:10:13.927Z,101904.08
2018-12-31T12:11:18.240Z,101903.92
2018-12-31T12:12:22.710Z,101890.45
2018-12-31T12:13:27.119Z,101895.13